sensor_id;sensor_type;location;lat;lon;timestamp;P1;durP1;ratioP1;P2;durP2;ratioP2
47659;SDS011;33403;43.608;1.458;2023-02-18T00:01:57;38.90;;;23.50;;
47659;SDS011;33403;43.608;1.458;2023-02-18T00:04:23;42.30;;;23.37;;
47659;SDS011;33403;43.608;1.458;2023-02-18T00:06:49;40.43;;;24.33;;
47659;SDS011;33403;43.608;1.458;2023-02-18T00:09:15;40.50;;;24.00;;
47659;SDS011;33403;43.608;1.458;2023-02-18T00:11:41;41.40;;;24.57;;
47659;SDS011;33403;43.608;1.458;2023-02-18T00:14:11;47.30;;;26.03;;
47659;SDS011;33403;43.608;1.458;2023-02-18T00:16:37;46.10;;;25.83;;
47659;SDS011;33403;43.608;1.458;2023-02-18T00:19:05;42.63;;;25.07;;
47659;SDS011;33403;43.608;1.458;2023-02-18T00:21:31;41.43;;;25.00;;
47659;SDS011;33403;43.608;1.458;2023-02-18T00:23:58;42.47;;;25.07;;
47659;SDS011;33403;43.608;1.458;2023-02-18T00:26:24;47.67;;;26.40;;
47659;SDS011;33403;43.608;1.458;2023-02-18T00:28:50;41.07;;;25.63;;
47659;SDS011;33403;43.608;1.458;2023-02-18T00:31:21;46.43;;;27.30;;
47659;SDS011;33403;43.608;1.458;2023-02-18T00:33:47;48.20;;;27.10;;
47659;SDS011;33403;43.608;1.458;2023-02-18T00:36:14;46.07;;;28.20;;
47659;SDS011;33403;43.608;1.458;2023-02-18T00:38:45;46.33;;;28.40;;
47659;SDS011;33403;43.608;1.458;2023-02-18T00:41:11;46.17;;;28.00;;
47659;SDS011;33403;43.608;1.458;2023-02-18T00:43:37;43.23;;;27.37;;
47659;SDS011;33403;43.608;1.458;2023-02-18T00:46:03;46.87;;;28.13;;
47659;SDS011;33403;43.608;1.458;2023-02-18T00:48:30;46.90;;;28.47;;
47659;SDS011;33403;43.608;1.458;2023-02-18T00:50:57;45.57;;;26.90;;
47659;SDS011;33403;43.608;1.458;2023-02-18T00:53:24;45.60;;;27.60;;
47659;SDS011;33403;43.608;1.458;2023-02-18T00:55:50;47.63;;;26.43;;
47659;SDS011;33403;43.608;1.458;2023-02-18T00:58:17;44.73;;;26.53;;
47659;SDS011;33403;43.608;1.458;2023-02-18T01:00:43;45.27;;;26.70;;
47659;SDS011;33403;43.608;1.458;2023-02-18T01:03:09;42.37;;;24.70;;
47659;SDS011;33403;43.608;1.458;2023-02-18T01:05:35;43.83;;;24.23;;
47659;SDS011;33403;43.608;1.458;2023-02-18T01:08:01;40.77;;;23.27;;
47659;SDS011;33403;43.608;1.458;2023-02-18T01:10:28;34.40;;;22.67;;
47659;SDS011;33403;43.608;1.458;2023-02-18T01:12:54;40.07;;;22.10;;
47659;SDS011;33403;43.608;1.458;2023-02-18T01:15:20;35.00;;;20.77;;
47659;SDS011;33403;43.608;1.458;2023-02-18T01:17:46;36.80;;;21.60;;
47659;SDS011;33403;43.608;1.458;2023-02-18T01:20:12;39.57;;;22.33;;
47659;SDS011;33403;43.608;1.458;2023-02-18T01:22:39;37.43;;;21.13;;
47659;SDS011;33403;43.608;1.458;2023-02-18T01:25:05;34.80;;;21.77;;
47659;SDS011;33403;43.608;1.458;2023-02-18T01:27:31;35.37;;;22.30;;
47659;SDS011;33403;43.608;1.458;2023-02-18T01:29:57;37.77;;;22.83;;
47659;SDS011;33403;43.608;1.458;2023-02-18T01:32:23;37.90;;;23.60;;
47659;SDS011;33403;43.608;1.458;2023-02-18T01:34:49;39.47;;;23.87;;
47659;SDS011;33403;43.608;1.458;2023-02-18T01:37:15;38.17;;;23.03;;
47659;SDS011;33403;43.608;1.458;2023-02-18T01:39:41;40.03;;;24.97;;
47659;SDS011;33403;43.608;1.458;2023-02-18T01:42:16;38.00;;;23.37;;
47659;SDS011;33403;43.608;1.458;2023-02-18T01:44:42;41.60;;;24.87;;
47659;SDS011;33403;43.608;1.458;2023-02-18T01:47:08;37.53;;;23.40;;
47659;SDS011;33403;43.608;1.458;2023-02-18T01:49:34;42.03;;;23.53;;
47659;SDS011;33403;43.608;1.458;2023-02-18T01:52:04;36.13;;;23.13;;
47659;SDS011;33403;43.608;1.458;2023-02-18T01:54:35;36.70;;;23.27;;
47659;SDS011;33403;43.608;1.458;2023-02-18T02:00:04;37.93;;;23.10;;
47659;SDS011;33403;43.608;1.458;2023-02-18T02:02:31;37.70;;;22.47;;
47659;SDS011;33403;43.608;1.458;2023-02-18T02:05:00;35.90;;;22.77;;
47659;SDS011;33403;43.608;1.458;2023-02-18T02:07:26;44.37;;;23.43;;
47659;SDS011;33403;43.608;1.458;2023-02-18T02:09:53;41.43;;;22.43;;
47659;SDS011;33403;43.608;1.458;2023-02-18T02:12:24;37.90;;;22.73;;
47659;SDS011;33403;43.608;1.458;2023-02-18T02:24:53;38.47;;;23.27;;
47659;SDS011;33403;43.608;1.458;2023-02-18T02:27:24;38.90;;;23.20;;
47659;SDS011;33403;43.608;1.458;2023-02-18T02:29:59;36.70;;;22.40;;
47659;SDS011;33403;43.608;1.458;2023-02-18T02:32:41;34.93;;;21.80;;
47659;SDS011;33403;43.608;1.458;2023-02-18T02:37:46;38.03;;;22.30;;
47659;SDS011;33403;43.608;1.458;2023-02-18T02:45:32;37.63;;;22.43;;
47659;SDS011;33403;43.608;1.458;2023-02-18T02:51:01;36.37;;;21.53;;
47659;SDS011;33403;43.608;1.458;2023-02-18T02:53:30;36.23;;;21.40;;
47659;SDS011;33403;43.608;1.458;2023-02-18T02:55:56;36.53;;;21.70;;
47659;SDS011;33403;43.608;1.458;2023-02-18T02:58:22;33.87;;;20.63;;
47659;SDS011;33403;43.608;1.458;2023-02-18T03:05:51;33.40;;;21.87;;
47659;SDS011;33403;43.608;1.458;2023-02-18T03:18:51;36.30;;;21.67;;
47659;SDS011;33403;43.608;1.458;2023-02-18T03:21:28;38.13;;;21.83;;
47659;SDS011;33403;43.608;1.458;2023-02-18T03:26:29;34.97;;;21.40;;
47659;SDS011;33403;43.608;1.458;2023-02-18T03:28:57;34.13;;;21.57;;
47659;SDS011;33403;43.608;1.458;2023-02-18T03:31:25;33.13;;;21.30;;
47659;SDS011;33403;43.608;1.458;2023-02-18T03:34:06;33.20;;;20.97;;
47659;SDS011;33403;43.608;1.458;2023-02-18T03:36:33;38.23;;;21.80;;
47659;SDS011;33403;43.608;1.458;2023-02-18T03:39:02;37.00;;;20.83;;
47659;SDS011;33403;43.608;1.458;2023-02-18T03:41:29;33.07;;;20.93;;
47659;SDS011;33403;43.608;1.458;2023-02-18T03:44:00;34.97;;;20.97;;
47659;SDS011;33403;43.608;1.458;2023-02-18T03:46:27;32.90;;;21.73;;
47659;SDS011;33403;43.608;1.458;2023-02-18T03:48:53;35.10;;;21.90;;
47659;SDS011;33403;43.608;1.458;2023-02-18T03:51:19;35.73;;;21.17;;
47659;SDS011;33403;43.608;1.458;2023-02-18T03:53:46;37.87;;;21.60;;
47659;SDS011;33403;43.608;1.458;2023-02-18T03:56:12;35.50;;;20.73;;
47659;SDS011;33403;43.608;1.458;2023-02-18T03:58:38;31.47;;;19.97;;
47659;SDS011;33403;43.608;1.458;2023-02-18T04:01:04;33.10;;;19.80;;
47659;SDS011;33403;43.608;1.458;2023-02-18T04:03:31;38.27;;;20.33;;
47659;SDS011;33403;43.608;1.458;2023-02-18T04:05:57;35.00;;;19.77;;
47659;SDS011;33403;43.608;1.458;2023-02-18T04:08:23;35.67;;;20.20;;
47659;SDS011;33403;43.608;1.458;2023-02-18T04:10:49;31.83;;;19.10;;
47659;SDS011;33403;43.608;1.458;2023-02-18T04:13:15;33.23;;;19.90;;
47659;SDS011;33403;43.608;1.458;2023-02-18T04:15:42;35.70;;;18.90;;
47659;SDS011;33403;43.608;1.458;2023-02-18T04:18:08;34.57;;;20.13;;
47659;SDS011;33403;43.608;1.458;2023-02-18T04:20:34;32.63;;;19.20;;
47659;SDS011;33403;43.608;1.458;2023-02-18T04:23:01;34.00;;;19.70;;
47659;SDS011;33403;43.608;1.458;2023-02-18T04:25:27;33.37;;;19.50;;
47659;SDS011;33403;43.608;1.458;2023-02-18T04:27:53;35.83;;;19.70;;
47659;SDS011;33403;43.608;1.458;2023-02-18T04:30:19;31.60;;;19.20;;
47659;SDS011;33403;43.608;1.458;2023-02-18T04:32:46;31.00;;;19.13;;
47659;SDS011;33403;43.608;1.458;2023-02-18T04:35:12;30.37;;;18.90;;
47659;SDS011;33403;43.608;1.458;2023-02-18T04:37:38;28.40;;;18.63;;
47659;SDS011;33403;43.608;1.458;2023-02-18T04:40:04;29.90;;;19.03;;
47659;SDS011;33403;43.608;1.458;2023-02-18T04:42:30;27.47;;;19.20;;
47659;SDS011;33403;43.608;1.458;2023-02-18T04:44:56;33.10;;;18.97;;
47659;SDS011;33403;43.608;1.458;2023-02-18T04:47:22;28.60;;;18.17;;
47659;SDS011;33403;43.608;1.458;2023-02-18T04:49:48;32.57;;;18.47;;
47659;SDS011;33403;43.608;1.458;2023-02-18T04:52:14;33.00;;;19.37;;
47659;SDS011;33403;43.608;1.458;2023-02-18T04:54:40;31.17;;;18.87;;
47659;SDS011;33403;43.608;1.458;2023-02-18T04:57:06;31.07;;;18.57;;
47659;SDS011;33403;43.608;1.458;2023-02-18T04:59:32;31.20;;;19.20;;
47659;SDS011;33403;43.608;1.458;2023-02-18T05:01:58;32.27;;;19.60;;
47659;SDS011;33403;43.608;1.458;2023-02-18T05:04:24;32.63;;;19.27;;
47659;SDS011;33403;43.608;1.458;2023-02-18T05:06:50;35.70;;;19.83;;
47659;SDS011;33403;43.608;1.458;2023-02-18T05:09:16;34.53;;;19.80;;
47659;SDS011;33403;43.608;1.458;2023-02-18T05:11:42;29.53;;;18.97;;
47659;SDS011;33403;43.608;1.458;2023-02-18T05:14:08;31.73;;;18.83;;
47659;SDS011;33403;43.608;1.458;2023-02-18T05:16:35;31.70;;;18.97;;
47659;SDS011;33403;43.608;1.458;2023-02-18T05:19:01;30.03;;;18.97;;
47659;SDS011;33403;43.608;1.458;2023-02-18T05:21:27;30.77;;;19.43;;
47659;SDS011;33403;43.608;1.458;2023-02-18T05:23:53;34.77;;;18.87;;
47659;SDS011;33403;43.608;1.458;2023-02-18T05:26:19;38.30;;;19.57;;
47659;SDS011;33403;43.608;1.458;2023-02-18T05:28:45;36.33;;;19.37;;
47659;SDS011;33403;43.608;1.458;2023-02-18T05:31:11;32.03;;;18.97;;
47659;SDS011;33403;43.608;1.458;2023-02-18T05:33:37;30.67;;;19.87;;
47659;SDS011;33403;43.608;1.458;2023-02-18T05:36:03;29.90;;;18.30;;
47659;SDS011;33403;43.608;1.458;2023-02-18T05:38:29;30.93;;;19.17;;
47659;SDS011;33403;43.608;1.458;2023-02-18T05:40:55;31.47;;;20.00;;
47659;SDS011;33403;43.608;1.458;2023-02-18T05:43:21;32.17;;;19.53;;
47659;SDS011;33403;43.608;1.458;2023-02-18T05:45:47;32.73;;;18.77;;
47659;SDS011;33403;43.608;1.458;2023-02-18T05:48:13;32.73;;;19.07;;
47659;SDS011;33403;43.608;1.458;2023-02-18T05:50:39;31.07;;;19.13;;
47659;SDS011;33403;43.608;1.458;2023-02-18T05:53:05;28.97;;;19.23;;
47659;SDS011;33403;43.608;1.458;2023-02-18T05:55:31;31.77;;;19.07;;
47659;SDS011;33403;43.608;1.458;2023-02-18T05:58:03;31.97;;;19.20;;
47659;SDS011;33403;43.608;1.458;2023-02-18T06:00:29;35.97;;;19.73;;
47659;SDS011;33403;43.608;1.458;2023-02-18T06:02:56;31.57;;;18.77;;
47659;SDS011;33403;43.608;1.458;2023-02-18T06:05:22;32.50;;;18.97;;
47659;SDS011;33403;43.608;1.458;2023-02-18T06:07:48;31.10;;;18.00;;
47659;SDS011;33403;43.608;1.458;2023-02-18T06:10:14;31.80;;;19.07;;
47659;SDS011;33403;43.608;1.458;2023-02-18T06:12:42;32.97;;;19.73;;
47659;SDS011;33403;43.608;1.458;2023-02-18T06:15:08;30.90;;;18.60;;
47659;SDS011;33403;43.608;1.458;2023-02-18T06:17:34;35.30;;;18.63;;
47659;SDS011;33403;43.608;1.458;2023-02-18T06:20:00;28.57;;;17.87;;
47659;SDS011;33403;43.608;1.458;2023-02-18T06:22:26;29.23;;;17.87;;
47659;SDS011;33403;43.608;1.458;2023-02-18T06:24:53;29.47;;;17.13;;
47659;SDS011;33403;43.608;1.458;2023-02-18T06:27:19;24.40;;;15.50;;
47659;SDS011;33403;43.608;1.458;2023-02-18T06:29:45;29.17;;;16.80;;
47659;SDS011;33403;43.608;1.458;2023-02-18T06:32:11;25.13;;;16.77;;
47659;SDS011;33403;43.608;1.458;2023-02-18T06:34:37;25.90;;;16.83;;
47659;SDS011;33403;43.608;1.458;2023-02-18T06:37:03;28.17;;;17.73;;
47659;SDS011;33403;43.608;1.458;2023-02-18T06:39:29;26.87;;;16.67;;
47659;SDS011;33403;43.608;1.458;2023-02-18T06:41:55;34.03;;;17.27;;
47659;SDS011;33403;43.608;1.458;2023-02-18T06:44:22;27.70;;;17.07;;
47659;SDS011;33403;43.608;1.458;2023-02-18T06:46:48;31.17;;;17.23;;
47659;SDS011;33403;43.608;1.458;2023-02-18T06:49:14;29.33;;;17.40;;
47659;SDS011;33403;43.608;1.458;2023-02-18T06:51:40;29.00;;;17.30;;
47659;SDS011;33403;43.608;1.458;2023-02-18T06:54:06;31.33;;;18.90;;
47659;SDS011;33403;43.608;1.458;2023-02-18T06:56:32;30.53;;;18.33;;
47659;SDS011;33403;43.608;1.458;2023-02-18T06:58:58;30.23;;;17.90;;
47659;SDS011;33403;43.608;1.458;2023-02-18T07:01:24;32.67;;;18.10;;
47659;SDS011;33403;43.608;1.458;2023-02-18T07:03:50;29.37;;;17.60;;
47659;SDS011;33403;43.608;1.458;2023-02-18T07:06:16;28.33;;;17.67;;
47659;SDS011;33403;43.608;1.458;2023-02-18T07:08:42;33.33;;;17.73;;
47659;SDS011;33403;43.608;1.458;2023-02-18T07:11:08;30.23;;;18.80;;
47659;SDS011;33403;43.608;1.458;2023-02-18T07:13:34;31.60;;;18.80;;
47659;SDS011;33403;43.608;1.458;2023-02-18T07:16:01;31.20;;;18.43;;
47659;SDS011;33403;43.608;1.458;2023-02-18T07:18:27;29.53;;;19.70;;
47659;SDS011;33403;43.608;1.458;2023-02-18T07:20:53;33.13;;;19.87;;
47659;SDS011;33403;43.608;1.458;2023-02-18T07:23:19;32.47;;;20.73;;
47659;SDS011;33403;43.608;1.458;2023-02-18T07:25:45;35.47;;;20.23;;
47659;SDS011;33403;43.608;1.458;2023-02-18T07:28:11;34.63;;;21.13;;
47659;SDS011;33403;43.608;1.458;2023-02-18T07:30:37;37.77;;;20.10;;
47659;SDS011;33403;43.608;1.458;2023-02-18T07:33:03;34.10;;;20.47;;
47659;SDS011;33403;43.608;1.458;2023-02-18T07:35:29;35.00;;;20.00;;
47659;SDS011;33403;43.608;1.458;2023-02-18T07:37:55;33.67;;;20.77;;
47659;SDS011;33403;43.608;1.458;2023-02-18T07:40:22;39.50;;;23.27;;
47659;SDS011;33403;43.608;1.458;2023-02-18T07:42:48;34.07;;;21.60;;
47659;SDS011;33403;43.608;1.458;2023-02-18T07:45:14;33.53;;;20.40;;
47659;SDS011;33403;43.608;1.458;2023-02-18T07:47:40;33.17;;;21.57;;
47659;SDS011;33403;43.608;1.458;2023-02-18T07:50:07;38.30;;;22.10;;
47659;SDS011;33403;43.608;1.458;2023-02-18T07:52:33;40.73;;;23.50;;
47659;SDS011;33403;43.608;1.458;2023-02-18T07:54:59;47.33;;;25.20;;
47659;SDS011;33403;43.608;1.458;2023-02-18T07:57:25;45.07;;;23.47;;
47659;SDS011;33403;43.608;1.458;2023-02-18T07:59:51;41.27;;;23.37;;
47659;SDS011;33403;43.608;1.458;2023-02-18T08:02:18;44.77;;;24.33;;
47659;SDS011;33403;43.608;1.458;2023-02-18T08:04:46;45.20;;;25.17;;
47659;SDS011;33403;43.608;1.458;2023-02-18T08:07:15;42.47;;;25.13;;
47659;SDS011;33403;43.608;1.458;2023-02-18T08:09:41;40.10;;;24.70;;
47659;SDS011;33403;43.608;1.458;2023-02-18T08:12:07;45.13;;;25.70;;
47659;SDS011;33403;43.608;1.458;2023-02-18T08:14:33;45.50;;;25.73;;
47659;SDS011;33403;43.608;1.458;2023-02-18T08:16:59;40.20;;;24.77;;
47659;SDS011;33403;43.608;1.458;2023-02-18T08:19:25;45.17;;;26.77;;
47659;SDS011;33403;43.608;1.458;2023-02-18T08:21:51;38.87;;;24.97;;
47659;SDS011;33403;43.608;1.458;2023-02-18T08:24:17;41.17;;;25.43;;
47659;SDS011;33403;43.608;1.458;2023-02-18T08:26:43;45.00;;;26.33;;
47659;SDS011;33403;43.608;1.458;2023-02-18T08:29:09;43.27;;;25.60;;
47659;SDS011;33403;43.608;1.458;2023-02-18T08:31:35;43.17;;;26.23;;
47659;SDS011;33403;43.608;1.458;2023-02-18T08:34:01;40.53;;;25.03;;
47659;SDS011;33403;43.608;1.458;2023-02-18T08:36:28;42.10;;;26.23;;
47659;SDS011;33403;43.608;1.458;2023-02-18T08:38:54;42.63;;;25.33;;
47659;SDS011;33403;43.608;1.458;2023-02-18T08:41:20;41.63;;;25.40;;
47659;SDS011;33403;43.608;1.458;2023-02-18T08:43:46;43.57;;;26.93;;
47659;SDS011;33403;43.608;1.458;2023-02-18T08:46:13;43.63;;;25.77;;
47659;SDS011;33403;43.608;1.458;2023-02-18T08:48:39;42.50;;;26.33;;
47659;SDS011;33403;43.608;1.458;2023-02-18T08:51:15;43.10;;;26.27;;
47659;SDS011;33403;43.608;1.458;2023-02-18T08:53:42;40.77;;;26.37;;
47659;SDS011;33403;43.608;1.458;2023-02-18T08:56:10;47.93;;;26.73;;
47659;SDS011;33403;43.608;1.458;2023-02-18T08:58:37;42.13;;;26.27;;
47659;SDS011;33403;43.608;1.458;2023-02-18T09:01:05;43.40;;;26.20;;
47659;SDS011;33403;43.608;1.458;2023-02-18T09:03:31;39.97;;;25.87;;
47659;SDS011;33403;43.608;1.458;2023-02-18T09:05:57;42.03;;;25.03;;
47659;SDS011;33403;43.608;1.458;2023-02-18T09:08:24;40.23;;;25.30;;
47659;SDS011;33403;43.608;1.458;2023-02-18T09:10:53;43.33;;;24.00;;
47659;SDS011;33403;43.608;1.458;2023-02-18T09:13:19;42.13;;;23.50;;
47659;SDS011;33403;43.608;1.458;2023-02-18T09:15:45;36.70;;;22.27;;
47659;SDS011;33403;43.608;1.458;2023-02-18T09:18:11;33.33;;;21.23;;
47659;SDS011;33403;43.608;1.458;2023-02-18T09:20:38;32.70;;;20.77;;
47659;SDS011;33403;43.608;1.458;2023-02-18T09:23:04;33.37;;;19.73;;
47659;SDS011;33403;43.608;1.458;2023-02-18T09:25:30;31.33;;;19.97;;
47659;SDS011;33403;43.608;1.458;2023-02-18T09:27:56;29.33;;;19.83;;
47659;SDS011;33403;43.608;1.458;2023-02-18T09:30:22;31.23;;;19.63;;
47659;SDS011;33403;43.608;1.458;2023-02-18T09:32:48;35.87;;;20.40;;
47659;SDS011;33403;43.608;1.458;2023-02-18T09:35:14;35.03;;;20.57;;
47659;SDS011;33403;43.608;1.458;2023-02-18T09:37:40;32.03;;;20.63;;
47659;SDS011;33403;43.608;1.458;2023-02-18T09:40:07;33.57;;;19.87;;
47659;SDS011;33403;43.608;1.458;2023-02-18T09:42:33;30.20;;;20.07;;
47659;SDS011;33403;43.608;1.458;2023-02-18T09:45:00;32.53;;;19.83;;
47659;SDS011;33403;43.608;1.458;2023-02-18T09:49:55;29.33;;;19.50;;
47659;SDS011;33403;43.608;1.458;2023-02-18T09:52:32;31.37;;;19.00;;
47659;SDS011;33403;43.608;1.458;2023-02-18T09:55:00;29.20;;;18.97;;
47659;SDS011;33403;43.608;1.458;2023-02-18T09:57:28;29.10;;;18.37;;
47659;SDS011;33403;43.608;1.458;2023-02-18T10:00:04;28.60;;;19.23;;
47659;SDS011;33403;43.608;1.458;2023-02-18T10:02:30;36.00;;;19.63;;
47659;SDS011;33403;43.608;1.458;2023-02-18T10:04:57;31.37;;;19.57;;
47659;SDS011;33403;43.608;1.458;2023-02-18T10:07:24;30.40;;;19.33;;
47659;SDS011;33403;43.608;1.458;2023-02-18T10:09:52;30.23;;;19.93;;
47659;SDS011;33403;43.608;1.458;2023-02-18T10:12:19;31.03;;;20.60;;
47659;SDS011;33403;43.608;1.458;2023-02-18T10:14:48;34.17;;;20.67;;
47659;SDS011;33403;43.608;1.458;2023-02-18T10:17:15;31.37;;;19.97;;
47659;SDS011;33403;43.608;1.458;2023-02-18T10:19:42;31.03;;;20.00;;
47659;SDS011;33403;43.608;1.458;2023-02-18T10:22:09;30.97;;;19.13;;
47659;SDS011;33403;43.608;1.458;2023-02-18T10:24:37;31.43;;;19.63;;
47659;SDS011;33403;43.608;1.458;2023-02-18T10:27:05;32.83;;;19.83;;
47659;SDS011;33403;43.608;1.458;2023-02-18T10:29:32;29.33;;;19.13;;
47659;SDS011;33403;43.608;1.458;2023-02-18T10:32:02;30.42;;;19.38;;
47659;SDS011;33403;43.608;1.458;2023-02-18T10:37:06;29.43;;;18.80;;
47659;SDS011;33403;43.608;1.458;2023-02-18T10:42:14;30.23;;;19.40;;
47659;SDS011;33403;43.608;1.458;2023-02-18T10:44:49;35.05;;;18.88;;
47659;SDS011;33403;43.608;1.458;2023-02-18T10:52:23;30.17;;;19.05;;
47659;SDS011;33403;43.608;1.458;2023-02-18T10:57:20;32.00;;;18.88;;
47659;SDS011;33403;43.608;1.458;2023-02-18T10:59:57;29.98;;;19.25;;
47659;SDS011;33403;43.608;1.458;2023-02-18T11:02:25;32.13;;;18.73;;
47659;SDS011;33403;43.608;1.458;2023-02-18T11:04:53;32.30;;;17.85;;
47659;SDS011;33403;43.608;1.458;2023-02-18T11:07:30;29.65;;;17.60;;
47659;SDS011;33403;43.608;1.458;2023-02-18T11:09:57;32.00;;;18.95;;
47659;SDS011;33403;43.608;1.458;2023-02-18T11:17:37;31.88;;;18.65;;
47659;SDS011;33403;43.608;1.458;2023-02-18T11:22:48;30.23;;;18.42;;
47659;SDS011;33403;43.608;1.458;2023-02-18T11:25:22;25.70;;;17.95;;
47659;SDS011;33403;43.608;1.458;2023-02-18T11:27:55;26.67;;;17.88;;
47659;SDS011;33403;43.608;1.458;2023-02-18T11:30:25;29.75;;;19.00;;
47659;SDS011;33403;43.608;1.458;2023-02-18T11:32:53;28.38;;;17.40;;
47659;SDS011;33403;43.608;1.458;2023-02-18T11:35:24;32.33;;;18.63;;
47659;SDS011;33403;43.608;1.458;2023-02-18T11:37:51;26.60;;;17.33;;
47659;SDS011;33403;43.608;1.458;2023-02-18T11:40:22;27.60;;;17.90;;
47659;SDS011;33403;43.608;1.458;2023-02-18T11:42:48;30.55;;;18.27;;
47659;SDS011;33403;43.608;1.458;2023-02-18T11:45:28;30.20;;;19.02;;
47659;SDS011;33403;43.608;1.458;2023-02-18T11:48:28;28.83;;;18.48;;
47659;SDS011;33403;43.608;1.458;2023-02-18T11:50:51;27.92;;;17.45;;
47659;SDS011;33403;43.608;1.458;2023-02-18T11:53:33;28.88;;;18.35;;
47659;SDS011;33403;43.608;1.458;2023-02-18T11:56:01;25.77;;;17.92;;
47659;SDS011;33403;43.608;1.458;2023-02-18T11:58:30;32.00;;;18.58;;
47659;SDS011;33403;43.608;1.458;2023-02-18T12:00:59;28.50;;;18.38;;
47659;SDS011;33403;43.608;1.458;2023-02-18T12:03:38;31.15;;;17.52;;
47659;SDS011;33403;43.608;1.458;2023-02-18T12:06:12;25.60;;;17.27;;
47659;SDS011;33403;43.608;1.458;2023-02-18T12:08:53;35.13;;;19.35;;
47659;SDS011;33403;43.608;1.458;2023-02-18T12:11:31;29.20;;;18.13;;
47659;SDS011;33403;43.608;1.458;2023-02-18T12:13:58;30.10;;;18.13;;
47659;SDS011;33403;43.608;1.458;2023-02-18T12:17:25;30.58;;;17.42;;
47659;SDS011;33403;43.608;1.458;2023-02-18T12:19:34;25.33;;;17.50;;
47659;SDS011;33403;43.608;1.458;2023-02-18T12:29:49;22.63;;;15.40;;
47659;SDS011;33403;43.608;1.458;2023-02-18T12:32:34;22.90;;;14.70;;
47659;SDS011;33403;43.608;1.458;2023-02-18T12:35:13;23.77;;;14.73;;
47659;SDS011;33403;43.608;1.458;2023-02-18T12:42:56;20.73;;;13.50;;
47659;SDS011;33403;43.608;1.458;2023-02-18T12:48:36;26.65;;;13.80;;
47659;SDS011;33403;43.608;1.458;2023-02-18T12:51:06;23.48;;;12.02;;
47659;SDS011;33403;43.608;1.458;2023-02-18T13:04:27;21.77;;;12.43;;
47659;SDS011;33403;43.608;1.458;2023-02-18T13:15:17;21.73;;;12.75;;
47659;SDS011;33403;43.608;1.458;2023-02-18T13:17:24;22.92;;;12.27;;
47659;SDS011;33403;43.608;1.458;2023-02-18T13:19:56;20.08;;;11.77;;
47659;SDS011;33403;43.608;1.458;2023-02-18T13:22:24;18.45;;;11.38;;
47659;SDS011;33403;43.608;1.458;2023-02-18T13:24:53;18.73;;;10.82;;
47659;SDS011;33403;43.608;1.458;2023-02-18T13:30:08;15.18;;;10.15;;
47659;SDS011;33403;43.608;1.458;2023-02-18T13:32:46;18.48;;;10.75;;
47659;SDS011;33403;43.608;1.458;2023-02-18T13:35:19;15.10;;;9.60;;
47659;SDS011;33403;43.608;1.458;2023-02-18T13:40:32;14.70;;;8.55;;
47659;SDS011;33403;43.608;1.458;2023-02-18T13:45:43;16.10;;;9.13;;
47659;SDS011;33403;43.608;1.458;2023-02-18T13:48:27;11.27;;;8.40;;
47659;SDS011;33403;43.608;1.458;2023-02-18T13:50:53;14.82;;;8.55;;
47659;SDS011;33403;43.608;1.458;2023-02-18T13:53:25;11.95;;;7.60;;
47659;SDS011;33403;43.608;1.458;2023-02-18T13:55:59;12.23;;;7.30;;
47659;SDS011;33403;43.608;1.458;2023-02-18T14:01:00;9.52;;;5.65;;
47659;SDS011;33403;43.608;1.458;2023-02-18T14:05:56;7.13;;;5.18;;
47659;SDS011;33403;43.608;1.458;2023-02-18T14:16:08;7.43;;;5.10;;
47659;SDS011;33403;43.608;1.458;2023-02-18T14:28:39;15.00;;;5.30;;
47659;SDS011;33403;43.608;1.458;2023-02-18T14:33:45;7.18;;;5.03;;
47659;SDS011;33403;43.608;1.458;2023-02-18T14:41:18;7.25;;;4.85;;
47659;SDS011;33403;43.608;1.458;2023-02-18T14:43:56;8.40;;;4.78;;
47659;SDS011;33403;43.608;1.458;2023-02-18T14:49:04;9.70;;;5.40;;
47659;SDS011;33403;43.608;1.458;2023-02-18T14:51:33;9.43;;;5.75;;
47659;SDS011;33403;43.608;1.458;2023-02-18T14:54:06;8.30;;;5.60;;
47659;SDS011;33403;43.608;1.458;2023-02-18T14:56:41;12.55;;;5.35;;
47659;SDS011;33403;43.608;1.458;2023-02-18T14:59:09;10.05;;;6.07;;
47659;SDS011;33403;43.608;1.458;2023-02-18T15:01:37;9.70;;;6.00;;
47659;SDS011;33403;43.608;1.458;2023-02-18T15:04:04;10.45;;;6.18;;
47659;SDS011;33403;43.608;1.458;2023-02-18T15:06:31;13.32;;;6.82;;
47659;SDS011;33403;43.608;1.458;2023-02-18T15:08:58;9.43;;;6.22;;
47659;SDS011;33403;43.608;1.458;2023-02-18T15:11:38;9.73;;;5.80;;
47659;SDS011;33403;43.608;1.458;2023-02-18T15:14:48;7.75;;;5.13;;
47659;SDS011;33403;43.608;1.458;2023-02-18T15:16:54;8.73;;;5.30;;
47659;SDS011;33403;43.608;1.458;2023-02-18T15:19:23;8.00;;;5.68;;
47659;SDS011;33403;43.608;1.458;2023-02-18T15:21:50;7.63;;;4.82;;
47659;SDS011;33403;43.608;1.458;2023-02-18T15:26:45;8.52;;;4.97;;
47659;SDS011;33403;43.608;1.458;2023-02-18T15:29:29;7.95;;;5.30;;
47659;SDS011;33403;43.608;1.458;2023-02-18T15:31:56;7.82;;;5.18;;
47659;SDS011;33403;43.608;1.458;2023-02-18T15:36:49;7.30;;;4.90;;
47659;SDS011;33403;43.608;1.458;2023-02-18T15:39:15;9.10;;;5.13;;
47659;SDS011;33403;43.608;1.458;2023-02-18T15:41:41;8.43;;;5.10;;
47659;SDS011;33403;43.608;1.458;2023-02-18T15:44:07;7.72;;;4.88;;
47659;SDS011;33403;43.608;1.458;2023-02-18T15:46:33;8.02;;;5.47;;
47659;SDS011;33403;43.608;1.458;2023-02-18T15:48:59;10.70;;;5.72;;
47659;SDS011;33403;43.608;1.458;2023-02-18T15:51:26;9.98;;;5.65;;
47659;SDS011;33403;43.608;1.458;2023-02-18T15:53:54;9.93;;;6.38;;
47659;SDS011;33403;43.608;1.458;2023-02-18T15:56:25;11.05;;;6.30;;
47659;SDS011;33403;43.608;1.458;2023-02-18T15:58:55;9.00;;;6.20;;
47659;SDS011;33403;43.608;1.458;2023-02-18T16:01:25;9.10;;;6.20;;
47659;SDS011;33403;43.608;1.458;2023-02-18T16:03:52;11.88;;;6.88;;
47659;SDS011;33403;43.608;1.458;2023-02-18T16:08:58;11.85;;;6.50;;
47659;SDS011;33403;43.608;1.458;2023-02-18T16:11:25;13.73;;;6.53;;
47659;SDS011;33403;43.608;1.458;2023-02-18T16:13:52;13.13;;;6.40;;
47659;SDS011;33403;43.608;1.458;2023-02-18T16:16:27;12.52;;;6.25;;
47659;SDS011;33403;43.608;1.458;2023-02-18T16:18:53;14.30;;;6.60;;
47659;SDS011;33403;43.608;1.458;2023-02-18T16:21:43;11.32;;;6.15;;
47659;SDS011;33403;43.608;1.458;2023-02-18T16:24:25;9.77;;;6.25;;
47659;SDS011;33403;43.608;1.458;2023-02-18T16:26:59;10.00;;;6.15;;
47659;SDS011;33403;43.608;1.458;2023-02-18T16:29:26;9.60;;;5.53;;
47659;SDS011;33403;43.608;1.458;2023-02-18T16:31:58;8.65;;;5.63;;
47659;SDS011;33403;43.608;1.458;2023-02-18T16:34:24;7.90;;;6.03;;
47659;SDS011;33403;43.608;1.458;2023-02-18T16:36:51;8.82;;;6.28;;
47659;SDS011;33403;43.608;1.458;2023-02-18T16:39:36;9.07;;;5.72;;
47659;SDS011;33403;43.608;1.458;2023-02-18T16:42:04;7.20;;;5.72;;
47659;SDS011;33403;43.608;1.458;2023-02-18T16:44:33;8.75;;;5.95;;
47659;SDS011;33403;43.608;1.458;2023-02-18T16:46:59;8.95;;;5.55;;
47659;SDS011;33403;43.608;1.458;2023-02-18T16:49:25;9.82;;;5.55;;
47659;SDS011;33403;43.608;1.458;2023-02-18T16:51:52;9.38;;;5.40;;
47659;SDS011;33403;43.608;1.458;2023-02-18T16:54:18;8.55;;;5.70;;
47659;SDS011;33403;43.608;1.458;2023-02-18T16:56:44;9.98;;;5.38;;
47659;SDS011;33403;43.608;1.458;2023-02-18T16:59:10;9.73;;;5.25;;
47659;SDS011;33403;43.608;1.458;2023-02-18T17:01:37;7.82;;;5.50;;